Time;durP1;ratioP1;P1;durP2;ratioP2;P2;SDS_P1;SDS_P2;PMS_P1;PMS_P2;Temp;Humidity;BMP_temperature;BMP_pressure;BME280_temperature;BME280_humidity;BME280_pressure;Samples;Min_cycle;Max_cycle;Signal;HPM_P1;HPM_P2
2023/12/01 00:01:19;;;;;;;0.00;0.00;;;21.30;45.90;;;;;;5026518;28;20695;-50
2023/12/01 00:03:50;;;;;;;0.00;0.00;;;21.40;46.00;;;;;;5020799;28;20189;-49
2023/12/01 00:06:22;;;;;;;0.10;0.10;;;21.40;46.00;;;;;;5013503;28;20192;-50
2023/12/01 00:08:53;;;;;;;0.00;0.00;;;21.40;46.00;;;;;;5027119;28;20223;-47
2023/12/01 00:11:24;;;;;;;0.10;0.10;;;21.40;45.90;;;;;;5033382;28;20648;-50
2023/12/01 00:13:55;;;;;;;0.10;0.10;;;21.50;45.90;;;;;;5027537;28;20219;-48
2023/12/01 00:16:26;;;;;;;0.10;0.10;;;21.50;45.90;;;;;;5034333;28;20200;-47
2023/12/01 00:18:57;;;;;;;0.10;0.10;;;21.50;46.50;;;;;;5033539;28;20202;-49
2023/12/01 00:21:30;;;;;;;0.10;0.10;;;21.60;46.00;;;;;;5033489;28;20212;-50
2023/12/01 00:24:00;;;;;;;0.10;0.10;;;21.60;46.00;;;;;;5031450;28;20585;-47
2023/12/01 00:26:31;;;;;;;0.03;0.03;;;21.60;46.00;;;;;;5032768;28;20192;-48
2023/12/01 00:29:02;;;;;;;0.10;0.10;;;21.60;45.80;;;;;;5028753;28;20200;-49
2023/12/01 00:31:32;;;;;;;0.00;0.00;;;21.60;45.70;;;;;;5013343;28;20256;-51
2023/12/01 00:34:04;;;;;;;0.00;0.00;;;21.70;45.80;;;;;;5018386;28;20227;-53
2023/12/01 00:36:36;;;;;;;0.00;0.00;;;21.70;45.80;;;;;;5015712;28;20207;-49
2023/12/01 00:39:07;;;;;;;0.03;0.03;;;21.70;45.80;;;;;;5024822;28;20201;-51
2023/12/01 00:41:37;;;;;;;0.00;0.00;;;21.70;45.60;;;;;;5030627;28;20220;-48
2023/12/01 00:44:08;;;;;;;0.03;0.03;;;21.80;45.70;;;;;;5032587;28;20660;-48
2023/12/01 00:46:39;;;;;;;0.00;0.00;;;21.80;46.20;;;;;;5032956;28;20196;-46
2023/12/01 00:49:10;;;;;;;0.00;0.00;;;21.80;45.60;;;;;;5031418;28;20192;-49
2023/12/01 00:51:43;;;;;;;0.10;0.10;;;21.80;45.50;;;;;;5032748;28;20686;-48
2023/12/01 00:54:14;;;;;;;0.00;0.00;;;21.90;45.50;;;;;;5032441;28;20729;-45
2023/12/01 00:56:45;;;;;;;0.00;0.00;;;21.90;45.50;;;;;;5032878;28;20196;-49
2023/12/01 00:59:16;;;;;;;0.00;0.00;;;21.90;45.60;;;;;;5031406;28;20188;-47
2023/12/01 01:01:47;;;;;;;0.00;0.00;;;21.90;45.60;;;;;;5025439;28;20220;-48
2023/12/01 01:04:18;;;;;;;0.10;0.10;;;21.90;45.50;;;;;;5017985;28;20263;-45
2023/12/01 01:06:50;;;;;;;0.00;0.00;;;22.00;45.40;;;;;;5015197;28;20385;-47
2023/12/01 01:09:21;;;;;;;0.00;0.00;;;22.00;46.00;;;;;;5026754;28;20203;-44
2023/12/01 01:11:55;;;;;;;0.10;0.10;;;22.00;45.40;;;;;;5012771;28;20217;-43
2023/12/01 01:14:26;;;;;;;0.00;0.00;;;22.00;45.30;;;;;;5026843;28;20683;-47
2023/12/01 01:16:57;;;;;;;0.00;0.00;;;22.00;45.30;;;;;;5016377;28;20223;-49
2023/12/01 01:19:28;;;;;;;0.00;0.00;;;22.10;45.40;;;;;;5018452;28;20201;-47
2023/12/01 01:22:01;;;;;;;0.00;0.00;;;22.10;45.40;;;;;;5026833;28;20704;-48
2023/12/01 01:24:31;;;;;;;0.00;0.00;;;22.10;45.30;;;;;;5026680;28;20656;-46
2023/12/01 01:27:02;;;;;;;0.00;0.00;;;22.10;45.30;;;;;;5012658;28;20193;-49
2023/12/01 01:29:33;;;;;;;0.00;0.00;;;22.20;45.30;;;;;;5024659;28;20213;-48
2023/12/01 01:32:04;;;;;;;0.00;0.00;;;22.20;45.30;;;;;;5029841;28;20195;-44
2023/12/01 01:34:35;;;;;;;0.00;0.00;;;22.20;45.20;;;;;;5016971;28;20221;-46
2023/12/01 01:37:07;;;;;;;0.00;0.00;;;22.20;45.20;;;;;;5012269;28;20197;-49
2023/12/01 01:39:38;;;;;;;0.00;0.00;;;22.30;45.20;;;;;;5026385;28;20223;-48
2023/12/01 01:42:09;;;;;;;0.00;0.00;;;22.30;45.10;;;;;;5012010;28;20209;-48
2023/12/01 01:44:40;;;;;;;0.00;0.00;;;22.30;45.00;;;;;;5012021;28;20208;-50
2023/12/01 01:47:10;;;;;;;0.00;0.00;;;22.30;45.00;;;;;;5012460;28;20657;-48
2023/12/01 01:49:42;;;;;;;0.00;0.00;;;22.30;44.90;;;;;;5021706;28;20204;-48
2023/12/01 01:52:15;;;;;;;0.00;0.00;;;22.30;44.80;;;;;;5015958;28;20192;-48
2023/12/01 01:54:46;;;;;;;0.05;0.05;;;22.40;44.90;;;;;;5026199;28;20227;-48
2023/12/01 01:57:17;;;;;;;0.00;0.00;;;22.40;44.80;;;;;;5016046;28;20200;-48
2023/12/01 01:59:48;;;;;;;0.00;0.00;;;22.40;44.80;;;;;;5016663;28;20193;-49
2023/12/01 02:02:18;;;;;;;0.00;0.00;;;22.40;44.80;;;;;;5012008;28;20204;-48
2023/12/01 02:04:53;;;;;;;0.05;0.05;;;22.40;44.80;;;;;;5016340;28;20653;-48
2023/12/01 02:07:32;;;;;;;0.00;0.00;;;22.50;44.80;;;;;;5015716;28;20658;-51
2023/12/01 02:10:03;;;;;;;0.00;0.00;;;22.50;44.80;;;;;;5029201;28;20683;-48
2023/12/01 02:12:34;;;;;;;0.00;0.00;;;22.50;44.80;;;;;;5013569;28;20197;-48
2023/12/01 02:15:05;;;;;;;0.10;0.10;;;22.50;44.80;;;;;;5014108;28;20235;-48
2023/12/01 02:17:35;;;;;;;0.00;0.00;;;22.60;44.70;;;;;;5012694;28;20200;-48
2023/12/01 02:20:14;;;;;;;0.00;0.00;;;22.60;44.70;;;;;;5022900;28;20722;-49
2023/12/01 02:22:51;;;;;;;0.00;0.00;;;22.60;44.60;;;;;;5028639;28;20203;-47
2023/12/01 02:25:22;;;;;;;0.00;0.00;;;22.60;44.60;;;;;;5029343;28;20257;-49
2023/12/01 02:27:52;;;;;;;0.00;0.00;;;22.70;44.50;;;;;;5012720;28;20197;-49
2023/12/01 02:30:23;;;;;;;0.00;0.00;;;22.70;44.30;;;;;;5016259;28;20560;-49
2023/12/01 02:32:54;;;;;;;0.00;0.00;;;22.70;44.20;;;;;;5012055;28;20208;-46
2023/12/01 02:35:29;;;;;;;0.00;0.00;;;22.70;44.20;;;;;;5014720;28;20228;-50
2023/12/01 02:38:02;;;;;;;0.00;0.00;;;22.70;44.10;;;;;;5011471;28;20196;-47
2023/12/01 02:40:32;;;;;;;0.00;0.00;;;22.70;43.90;;;;;;5024637;28;20455;-48
2023/12/01 02:43:03;;;;;;;0.05;0.05;;;22.80;44.00;;;;;;5027208;28;20555;-48
2023/12/01 02:45:34;;;;;;;0.00;0.00;;;22.80;44.00;;;;;;5011552;28;20224;-50
2023/12/01 02:48:05;;;;;;;0.10;0.10;;;22.80;44.40;;;;;;5012262;28;20201;-48
2023/12/01 02:50:35;;;;;;;0.00;0.00;;;22.80;43.80;;;;;;5016610;28;20212;-46
2023/12/01 02:53:09;;;;;;;0.00;0.00;;;22.80;43.80;;;;;;5022889;28;20196;-49
2023/12/01 02:55:39;;;;;;;0.10;0.10;;;22.80;43.70;;;;;;5026905;28;20708;-51
2023/12/01 02:58:10;;;;;;;0.00;0.00;;;22.80;43.80;;;;;;5029987;28;20192;-48
2023/12/01 03:00:42;;;;;;;0.00;0.00;;;22.90;43.80;;;;;;5029485;28;20224;-48
2023/12/01 03:03:13;;;;;;;0.10;0.10;;;22.90;43.90;;;;;;5029942;28;20564;-49
2023/12/01 03:05:43;;;;;;;0.00;0.00;;;22.90;43.90;;;;;;5030927;28;20196;-49
2023/12/01 03:08:16;;;;;;;0.00;0.00;;;22.90;43.90;;;;;;5027544;28;20196;-49
2023/12/01 03:10:46;;;;;;;0.00;0.00;;;22.90;43.80;;;;;;5030450;28;20220;-48
2023/12/01 03:13:19;;;;;;;0.03;0.03;;;23.00;43.80;;;;;;5030838;28;20251;-46
2023/12/01 03:15:50;;;;;;;0.00;0.00;;;23.00;43.80;;;;;;5030791;28;20274;-48
2023/12/01 03:18:20;;;;;;;0.05;0.05;;;23.00;43.60;;;;;;5031212;28;20200;-46
2023/12/01 03:20:51;;;;;;;0.00;0.00;;;23.00;43.50;;;;;;5027703;28;20680;-49
2023/12/01 03:23:24;;;;;;;0.00;0.00;;;23.00;43.40;;;;;;5031348;28;20227;-46
2023/12/01 03:25:54;;;;;;;0.00;0.00;;;23.10;43.50;;;;;;5032613;28;20219;-48
2023/12/01 03:28:25;;;;;;;0.00;0.00;;;23.10;43.50;;;;;;5034770;28;20206;-46
2023/12/01 03:30:56;;;;;;;0.00;0.00;;;23.10;43.60;;;;;;5034597;28;20298;-48
2023/12/01 03:33:27;;;;;;;0.00;0.00;;;23.10;43.50;;;;;;5034805;28;20196;-47
2023/12/01 03:35:58;;;;;;;0.00;0.00;;;23.10;43.30;;;;;;5034562;28;20227;-48
2023/12/01 03:38:30;;;;;;;0.00;0.00;;;23.10;43.20;;;;;;5033475;28;20200;-46
2023/12/01 03:41:05;;;;;;;0.00;0.00;;;23.20;43.20;;;;;;5034467;28;20231;-49
2023/12/01 03:43:36;;;;;;;0.00;0.00;;;23.20;43.30;;;;;;5034660;28;20207;-50
2023/12/01 03:46:07;;;;;;;0.00;0.00;;;23.20;43.30;;;;;;5034361;28;20192;-48
2023/12/01 03:48:38;;;;;;;0.00;0.00;;;23.20;43.40;;;;;;5034104;28;20196;-49
2023/12/01 03:51:09;;;;;;;0.00;0.00;;;23.30;43.40;;;;;;5034378;28;20565;-52
2023/12/01 03:53:42;;;;;;;0.00;0.00;;;23.20;43.40;;;;;;5034500;28;20682;-44
2023/12/01 03:56:13;;;;;;;0.00;0.00;;;23.30;43.40;;;;;;5034039;28;20231;-47
2023/12/01 03:58:44;;;;;;;0.05;0.05;;;23.30;43.20;;;;;;5034459;28;20200;-46
2023/12/01 04:01:14;;;;;;;0.00;0.00;;;23.30;43.30;;;;;;5034399;28;20224;-48
2023/12/01 04:03:45;;;;;;;0.10;0.10;;;23.40;43.20;;;;;;5033887;28;20200;-48
2023/12/01 04:06:16;;;;;;;0.00;0.00;;;23.40;43.10;;;;;;5033733;28;20293;-46
2023/12/01 04:08:53;;;;;;;0.10;0.10;;;23.40;43.10;;;;;;5034014;28;20625;-46
2023/12/01 04:11:24;;;;;;;0.00;0.00;;;23.40;43.30;;;;;;5033208;28;20303;-48
2023/12/01 04:13:55;;;;;;;0.00;0.00;;;23.40;43.20;;;;;;5033442;28;20208;-51
2023/12/01 04:16:26;;;;;;;0.05;0.05;;;23.40;43.10;;;;;;5033731;28;20250;-45
2023/12/01 04:18:56;;;;;;;0.08;0.08;;;23.50;43.30;;;;;;5033823;28;20254;-46
2023/12/01 04:21:27;;;;;;;0.00;0.00;;;23.50;43.30;;;;;;5034148;28;20220;-49
2023/12/01 04:24:00;;;;;;;0.10;0.10;;;23.50;43.20;;;;;;5032254;28;20648;-46
2023/12/01 04:26:30;;;;;;;0.03;0.03;;;23.40;43.00;;;;;;5033551;28;20212;-46
2023/12/01 04:29:01;;;;;;;0.10;0.10;;;23.50;42.90;;;;;;5033490;28;20200;-51
2023/12/01 04:31:32;;;;;;;0.05;0.05;;;23.50;42.80;;;;;;5033278;28;20220;-49
2023/12/01 04:34:03;;;;;;;0.10;0.10;;;23.50;42.90;;;;;;5033107;28;20218;-48
2023/12/01 04:36:33;;;;;;;0.00;0.00;;;23.50;42.80;;;;;;5032795;28;20220;-46
2023/12/01 04:39:06;;;;;;;0.03;0.03;;;23.50;42.80;;;;;;5033102;28;20204;-49
2023/12/01 04:41:37;;;;;;;0.00;0.00;;;23.50;42.80;;;;;;5033465;28;20303;-49
2023/12/01 04:44:08;;;;;;;0.03;0.03;;;23.50;42.80;;;;;;5033553;28;20208;-46
2023/12/01 04:46:38;;;;;;;0.00;0.00;;;23.50;42.70;;;;;;5032979;28;20258;-48
2023/12/01 04:49:09;;;;;;;0.00;0.00;;;23.40;42.60;;;;;;5032667;28;20254;-49
2023/12/01 04:51:40;;;;;;;0.00;0.00;;;23.40;42.50;;;;;;5033163;28;20216;-47
2023/12/01 04:54:12;;;;;;;0.05;0.05;;;23.40;42.50;;;;;;5032495;28;20207;-45
2023/12/01 04:56:43;;;;;;;0.00;0.00;;;23.40;42.40;;;;;;5033033;28;20679;-48
2023/12/01 04:59:14;;;;;;;0.00;0.00;;;23.40;42.40;;;;;;5032813;28;20278;-48
2023/12/01 05:01:45;;;;;;;0.00;0.00;;;23.40;42.40;;;;;;5033324;28;20574;-48
2023/12/01 05:04:16;;;;;;;0.10;0.10;;;23.40;42.40;;;;;;5032926;28;20196;-47
2023/12/01 05:06:46;;;;;;;0.00;0.00;;;23.40;42.40;;;;;;5033068;28;20201;-46
2023/12/01 05:09:21;;;;;;;0.00;0.00;;;23.40;42.40;;;;;;5032916;28;20200;-49
2023/12/01 05:11:52;;;;;;;0.00;0.00;;;23.40;42.40;;;;;;5027219;28;20664;-49
2023/12/01 05:14:22;;;;;;;0.10;0.10;;;23.40;42.40;;;;;;5013470;28;20197;-45
2023/12/01 05:16:53;;;;;;;0.00;0.00;;;23.30;42.30;;;;;;5013302;28;20200;-47
2023/12/01 05:19:24;;;;;;;0.00;0.00;;;23.30;42.30;;;;;;5015156;28;20649;-47
2023/12/01 05:21:54;;;;;;;0.00;0.00;;;23.30;42.30;;;;;;5012531;28;20224;-49
2023/12/01 05:24:29;;;;;;;0.03;0.03;;;23.30;42.30;;;;;;5012120;28;20216;-45
2023/12/01 05:27:07;;;;;;;0.10;0.10;;;23.30;42.30;;;;;;5012528;28;20199;-49
2023/12/01 05:29:38;;;;;;;0.00;0.00;;;23.30;42.40;;;;;;5012639;28;20207;-48
2023/12/01 05:32:09;;;;;;;0.00;0.00;;;23.20;42.40;;;;;;5026620;28;20200;-49
2023/12/01 05:34:40;;;;;;;0.10;0.10;;;23.20;42.40;;;;;;5032181;28;20196;-46
2023/12/01 05:37:12;;;;;;;0.10;0.10;;;23.20;42.40;;;;;;5032024;28;20283;-48
2023/12/01 05:39:45;;;;;;;0.10;0.10;;;23.20;42.40;;;;;;5031891;28;20200;-49
2023/12/01 05:42:15;;;;;;;0.03;0.03;;;23.20;42.40;;;;;;5032683;28;20202;-45
2023/12/01 05:44:46;;;;;;;0.00;0.00;;;23.20;42.40;;;;;;5032437;28;20204;-46
2023/12/01 05:47:17;;;;;;;0.00;0.00;;;23.20;42.40;;;;;;5032192;28;20691;-49
2023/12/01 05:49:48;;;;;;;0.00;0.00;;;23.10;42.40;;;;;;5031637;28;20191;-49
2023/12/01 05:52:18;;;;;;;0.00;0.00;;;23.10;42.50;;;;;;5032023;28;20202;-47
2023/12/01 05:54:52;;;;;;;0.00;0.00;;;23.10;42.50;;;;;;5030795;28;20211;-46
2023/12/01 05:57:23;;;;;;;0.00;0.00;;;23.10;42.50;;;;;;5030937;28;20219;-47
2023/12/01 05:59:54;;;;;;;0.00;0.00;;;23.10;42.50;;;;;;5031656;28;20203;-50
2023/12/01 06:02:25;;;;;;;0.00;0.00;;;23.10;42.50;;;;;;5031640;28;20200;-48
2023/12/01 06:04:57;;;;;;;0.00;0.00;;;23.10;42.50;;;;;;5031322;28;20192;-45
2023/12/01 06:07:28;;;;;;;0.00;0.00;;;23.10;42.50;;;;;;5031328;28;20207;-50
2023/12/01 06:10:00;;;;;;;0.00;0.00;;;23.10;42.60;;;;;;5031113;28;20563;-46
2023/12/01 06:12:31;;;;;;;0.10;0.10;;;23.00;42.50;;;;;;5031453;28;20728;-48
2023/12/01 06:15:02;;;;;;;0.00;0.00;;;23.00;42.50;;;;;;5031116;28;20200;-50
2023/12/01 06:17:32;;;;;;;0.00;0.00;;;23.00;42.60;;;;;;5031095;28;20192;-45
2023/12/01 06:20:03;;;;;;;0.00;0.00;;;23.00;42.50;;;;;;5031335;28;20224;-48
2023/12/01 06:22:34;;;;;;;0.00;0.00;;;23.00;42.60;;;;;;5030078;28;20192;-46
2023/12/01 06:25:09;;;;;;;0.08;0.08;;;23.00;42.60;;;;;;5031375;28;20343;-49
2023/12/01 06:27:40;;;;;;;0.10;0.10;;;23.00;42.60;;;;;;5031661;28;20203;-49
2023/12/01 06:30:12;;;;;;;0.00;0.00;;;22.90;42.60;;;;;;5031538;28;20552;-48
2023/12/01 06:32:44;;;;;;;0.00;0.00;;;22.90;42.60;;;;;;5031292;28;20196;-46
2023/12/01 06:35:16;;;;;;;0.00;0.00;;;22.90;42.60;;;;;;5031179;28;20219;-46
2023/12/01 06:37:47;;;;;;;0.03;0.03;;;22.90;42.60;;;;;;5030957;28;20199;-50
2023/12/01 06:40:20;;;;;;;0.00;0.00;;;22.90;42.70;;;;;;5030657;28;20232;-46
2023/12/01 06:42:52;;;;;;;0.00;0.00;;;22.90;42.70;;;;;;5030872;28;20218;-48
2023/12/01 06:45:23;;;;;;;0.00;0.00;;;22.90;42.70;;;;;;5030763;28;20656;-48
2023/12/01 06:47:54;;;;;;;0.05;0.05;;;22.90;42.80;;;;;;5030676;28;20253;-51
2023/12/01 06:50:26;;;;;;;0.10;0.10;;;22.80;42.70;;;;;;5029720;28;20208;-45
2023/12/01 06:52:59;;;;;;;0.00;0.00;;;22.80;42.80;;;;;;5031404;28;20192;-49
2023/12/01 06:55:31;;;;;;;0.10;0.10;;;22.80;42.80;;;;;;5031133;28;20216;-48
2023/12/01 06:58:02;;;;;;;0.00;0.00;;;22.80;42.80;;;;;;5031102;28;20270;-44
2023/12/01 07:00:36;;;;;;;0.00;0.00;;;22.80;42.80;;;;;;5031885;28;20243;-48
2023/12/01 07:03:08;;;;;;;0.00;0.00;;;22.80;42.90;;;;;;5032928;28;20188;-50
2023/12/01 07:05:39;;;;;;;0.00;0.00;;;22.70;42.80;;;;;;5034667;28;20196;-48
2023/12/01 07:08:14;;;;;;;0.00;0.00;;;22.70;42.90;;;;;;5035203;28;20211;-46
2023/12/01 07:10:46;;;;;;;0.00;0.00;;;22.80;43.00;;;;;;5034814;28;20713;-46
2023/12/01 07:13:17;;;;;;;0.00;0.00;;;22.70;43.00;;;;;;5034899;28;20678;-46
2023/12/01 07:15:48;;;;;;;0.00;0.00;;;22.70;43.00;;;;;;5034828;28;20817;-48
2023/12/01 07:18:19;;;;;;;0.00;0.00;;;22.70;43.00;;;;;;5035153;28;20196;-46
2023/12/01 07:20:49;;;;;;;0.10;0.10;;;22.70;43.00;;;;;;5034994;28;20223;-48
2023/12/01 07:23:20;;;;;;;0.10;0.10;;;22.70;43.00;;;;;;5035051;28;20196;-48
2023/12/01 07:25:53;;;;;;;0.00;0.00;;;22.70;43.00;;;;;;5033016;28;20200;-49
2023/12/01 07:28:24;;;;;;;0.00;0.00;;;22.70;43.10;;;;;;5030698;28;20200;-45
2023/12/01 07:30:55;;;;;;;0.00;0.00;;;22.60;43.00;;;;;;5034588;28;20216;-46
2023/12/01 07:33:26;;;;;;;0.00;0.00;;;22.60;43.00;;;;;;5034765;28;20200;-50
2023/12/01 07:35:57;;;;;;;0.00;0.00;;;22.60;43.10;;;;;;5034452;28;20227;-48
2023/12/01 07:38:28;;;;;;;0.00;0.00;;;22.60;43.00;;;;;;5034318;28;20270;-45
2023/12/01 07:41:00;;;;;;;0.03;0.03;;;22.60;43.10;;;;;;5034135;28;20717;-48
2023/12/01 07:43:31;;;;;;;0.00;0.00;;;22.60;43.10;;;;;;5034580;28;20204;-46
2023/12/01 07:46:02;;;;;;;0.10;0.10;;;22.60;43.10;;;;;;5034852;28;20200;-47
2023/12/01 07:48:36;;;;;;;0.00;0.00;;;22.60;43.10;;;;;;5034684;28;20195;-48
2023/12/01 07:51:07;;;;;;;0.00;0.00;;;22.50;43.20;;;;;;5034497;28;20220;-49
2023/12/01 07:53:38;;;;;;;0.00;0.00;;;22.50;43.10;;;;;;5034524;28;20243;-49
2023/12/01 07:56:12;;;;;;;0.00;0.00;;;22.50;43.20;;;;;;5034273;28;20227;-49
2023/12/01 07:58:43;;;;;;;0.00;0.00;;;22.50;43.20;;;;;;5034084;28;20200;-48
2023/12/01 08:01:20;;;;;;;0.10;0.10;;;22.50;43.20;;;;;;5034635;28;20697;-48
2023/12/01 08:03:50;;;;;;;0.00;0.00;;;22.50;43.20;;;;;;5034266;28;20209;-49
2023/12/01 08:06:21;;;;;;;0.00;0.00;;;22.50;43.20;;;;;;5034106;28;20200;-44
2023/12/01 08:08:52;;;;;;;0.00;0.00;;;22.50;43.20;;;;;;5034025;28;20196;-45
2023/12/01 08:11:24;;;;;;;0.00;0.00;;;22.50;43.20;;;;;;5031547;28;20243;-48
2023/12/01 08:13:55;;;;;;;0.00;0.00;;;22.50;43.20;;;;;;5033079;28;20198;-49
2023/12/01 08:16:26;;;;;;;0.00;0.00;;;22.40;43.20;;;;;;5033404;28;20226;-48
2023/12/01 08:18:58;;;;;;;0.00;0.00;;;22.40;43.20;;;;;;5033657;28;20196;-48
2023/12/01 08:21:29;;;;;;;0.00;0.00;;;22.40;43.20;;;;;;5033642;28;20303;-48
2023/12/01 08:24:01;;;;;;;0.10;0.10;;;22.40;43.20;;;;;;5028922;28;21816;-46
2023/12/01 08:26:34;;;;;;;0.00;0.00;;;22.40;43.20;;;;;;5033677;28;20208;-46
2023/12/01 08:29:05;;;;;;;0.00;0.00;;;22.40;43.20;;;;;;5032284;28;20204;-50
2023/12/01 08:31:36;;;;;;;0.00;0.00;;;22.40;43.20;;;;;;5030365;28;20676;-48
2023/12/01 08:34:07;;;;;;;0.10;0.10;;;22.40;43.20;;;;;;5031285;28;20189;-49
2023/12/01 08:36:38;;;;;;;0.00;0.00;;;22.30;43.20;;;;;;5030653;28;20251;-47
2023/12/01 08:39:09;;;;;;;0.00;0.00;;;22.30;43.30;;;;;;5033374;28;20208;-48
2023/12/01 08:41:42;;;;;;;0.08;0.08;;;22.30;43.30;;;;;;5033545;28;20227;-47
2023/12/01 08:44:12;;;;;;;0.00;0.00;;;22.30;43.30;;;;;;5030958;28;20215;-46
2023/12/01 08:46:43;;;;;;;0.00;0.00;;;22.30;43.30;;;;;;5032536;28;20652;-46
2023/12/01 08:49:14;;;;;;;0.00;0.00;;;22.30;43.30;;;;;;5031581;28;20199;-48
2023/12/01 08:51:44;;;;;;;0.00;0.00;;;22.30;43.40;;;;;;5032372;28;20580;-43
2023/12/01 08:54:15;;;;;;;0.05;0.05;;;22.30;43.40;;;;;;5031870;28;20219;-48
2023/12/01 08:56:48;;;;;;;0.00;0.00;;;22.30;43.50;;;;;;5032340;28;20723;-45
2023/12/01 08:59:19;;;;;;;0.00;0.00;;;22.30;43.50;;;;;;5031521;28;20196;-49
2023/12/01 09:01:50;;;;;;;0.00;0.00;;;22.20;43.50;;;;;;5031548;28;20302;-46
2023/12/01 09:04:21;;;;;;;0.10;0.10;;;22.20;43.60;;;;;;5013016;28;20504;-48
2023/12/01 09:06:51;;;;;;;0.10;0.10;;;22.30;43.60;;;;;;5014752;28;20196;-46
2023/12/01 09:09:22;;;;;;;0.10;0.10;;;22.20;43.60;;;;;;5032159;28;20200;-47
2023/12/01 09:11:55;;;;;;;0.00;0.00;;;22.20;43.60;;;;;;5032729;28;20227;-49
2023/12/01 09:14:25;;;;;;;0.10;0.10;;;22.20;43.70;;;;;;5031580;28;20196;-48
2023/12/01 09:16:56;;;;;;;0.00;0.00;;;22.20;43.80;;;;;;5031888;28;20592;-48
2023/12/01 09:19:27;;;;;;;0.03;0.03;;;22.20;43.80;;;;;;5032316;28;20203;-46
2023/12/01 09:21:57;;;;;;;0.00;0.00;;;22.20;43.90;;;;;;5031486;28;20209;-48
2023/12/01 09:24:28;;;;;;;0.00;0.00;;;22.20;43.90;;;;;;5030948;28;20200;-46
2023/12/01 09:27:00;;;;;;;0.00;0.00;;;22.10;43.90;;;;;;5015441;28;20192;-46
2023/12/01 09:29:31;;;;;;;0.10;0.10;;;22.10;44.00;;;;;;5032053;28;20272;-48
2023/12/01 09:32:02;;;;;;;0.10;0.10;;;22.10;44.10;;;;;;5032013;28;20574;-47
2023/12/01 09:34:33;;;;;;;0.00;0.00;;;22.10;44.10;;;;;;5032224;28;20290;-48
2023/12/01 09:37:04;;;;;;;0.00;0.00;;;22.10;44.20;;;;;;5029626;28;20216;-48
2023/12/01 09:39:35;;;;;;;0.00;0.00;;;22.10;44.20;;;;;;5032145;28;20645;-46
2023/12/01 09:42:09;;;;;;;0.10;0.10;;;22.10;44.20;;;;;;5029787;28;20204;-47
2023/12/01 09:44:39;;;;;;;0.10;0.10;;;22.10;44.20;;;;;;5032154;28;20196;-49
2023/12/01 09:47:14;;;;;;;0.00;0.00;;;22.00;44.20;;;;;;5033037;28;20203;-47
2023/12/01 09:49:48;;;;;;;0.10;0.10;;;22.00;44.40;;;;;;5032106;28;20200;-49
2023/12/01 09:52:18;;;;;;;0.00;0.00;;;22.00;44.50;;;;;;5031975;28;20211;-48
2023/12/01 09:54:49;;;;;;;0.10;0.10;;;22.00;44.50;;;;;;5031428;28;20215;-46
2023/12/01 09:57:23;;;;;;;0.08;0.08;;;22.00;44.60;;;;;;5031988;28;20227;-51
2023/12/01 09:59:54;;;;;;;0.08;0.08;;;22.00;44.60;;;;;;5032673;28;20199;-48
2023/12/01 10:02:27;;;;;;;0.00;0.00;;;22.00;44.60;;;;;;5032614;28;20207;-48
2023/12/01 10:05:03;;;;;;;0.10;0.10;;;21.90;44.60;;;;;;5031970;28;20479;-50
2023/12/01 10:07:34;;;;;;;0.10;0.10;;;21.90;44.60;;;;;;5031782;28;20192;-48
2023/12/01 10:10:21;;;;;;;0.10;0.10;;;21.90;44.60;;;;;;5031575;28;20212;-48
2023/12/01 10:13:04;;;;;;;0.00;0.00;;;21.90;44.70;;;;;;5031642;28;20204;-48
2023/12/01 10:15:38;;;;;;;0.10;0.10;;;21.80;44.60;;;;;;5031944;28;20204;-48
2023/12/01 10:18:12;;;;;;;0.00;0.00;;;21.80;44.60;;;;;;5031872;28;20323;-46
2023/12/01 10:20:55;;;;;;;0.00;0.00;;;21.80;44.70;;;;;;5031646;28;20754;-46
2023/12/01 10:23:27;;;;;;;0.10;0.10;;;21.80;44.60;;;;;;5030848;28;20204;-49
2023/12/01 10:25:58;;;;;;;0.10;0.10;;;21.80;44.60;;;;;;5031484;28;20252;-49
2023/12/01 10:28:41;;;;;;;0.00;0.00;;;21.80;44.60;;;;;;5031678;28;20196;-46
2023/12/01 10:31:12;;;;;;;0.10;0.10;;;21.70;44.60;;;;;;5031573;28;20675;-49
2023/12/01 10:33:43;;;;;;;0.00;0.00;;;21.70;44.60;;;;;;5028480;28;20193;-47
2023/12/01 10:36:14;;;;;;;0.00;0.00;;;21.70;44.60;;;;;;5031126;28;20199;-48
2023/12/01 10:38:45;;;;;;;0.10;0.10;;;21.70;44.60;;;;;;5031827;28;20196;-48
2023/12/01 10:41:18;;;;;;;0.10;0.10;;;21.70;44.60;;;;;;5031432;28;20215;-48
2023/12/01 10:43:52;;;;;;;0.10;0.10;;;21.70;44.60;;;;;;5031478;28;20682;-48
2023/12/01 10:46:26;;;;;;;0.00;0.00;;;21.60;44.50;;;;;;5031604;28;20679;-48
2023/12/01 10:48:58;;;;;;;0.10;0.10;;;21.60;44.50;;;;;;5031570;28;20196;-49
2023/12/01 10:51:30;;;;;;;0.00;0.00;;;21.60;44.60;;;;;;5023742;28;20216;-48
2023/12/01 10:54:03;;;;;;;0.00;0.00;;;21.60;44.50;;;;;;5013996;28;20219;-46
2023/12/01 10:56:37;;;;;;;0.08;0.08;;;21.50;44.50;;;;;;5031376;28;20239;-48
2023/12/01 10:59:13;;;;;;;0.03;0.03;;;21.50;44.50;;;;;;5031005;28;20206;-49
2023/12/01 11:01:44;;;;;;;0.10;0.10;;;21.50;44.50;;;;;;5017168;28;20208;-48
2023/12/01 11:04:16;;;;;;;0.08;0.08;;;21.50;44.60;;;;;;5011522;28;20199;-45
2023/12/01 11:07:02;;;;;;;0.10;0.10;;;21.50;44.60;;;;;;5011495;28;20220;-46
2023/12/01 11:09:41;;;;;;;0.10;0.10;;;21.50;44.50;;;;;;5011294;28;20630;-47
2023/12/01 11:12:20;;;;;;;0.00;0.00;;;21.40;44.50;;;;;;5011586;28;20657;-48
2023/12/01 11:14:53;;;;;;;0.10;0.10;;;21.40;44.50;;;;;;5011669;28;20201;-47
2023/12/01 11:17:25;;;;;;;0.10;0.10;;;21.40;44.50;;;;;;5011288;28;20274;-49
2023/12/01 11:19:55;;;;;;;0.10;0.10;;;21.40;44.50;;;;;;5011182;28;20204;-52
2023/12/01 11:22:27;;;;;;;0.08;0.08;;;21.30;44.50;;;;;;5011442;28;20570;-46
2023/12/01 11:24:58;;;;;;;0.00;0.00;;;21.30;44.50;;;;;;5021487;28;20215;-51
2023/12/01 11:27:28;;;;;;;0.00;0.00;;;21.30;44.50;;;;;;5031110;28;20203;-47
2023/12/01 11:30:11;;;;;;;0.10;0.10;;;21.30;44.50;;;;;;5031242;28;20206;-48
2023/12/01 11:32:44;;;;;;;0.00;0.00;;;21.20;44.40;;;;;;5029982;28;20235;-46
2023/12/01 11:35:15;;;;;;;0.00;0.00;;;21.20;44.40;;;;;;5030963;28;20292;-48
2023/12/01 11:38:05;;;;;;;0.00;0.00;;;21.20;44.40;;;;;;5030486;28;20228;-50
2023/12/01 11:40:42;;;;;;;0.10;0.10;;;21.20;44.50;;;;;;5030560;28;20270;-48
2023/12/01 11:43:13;;;;;;;0.10;0.10;;;21.20;44.50;;;;;;5030907;28;21149;-50
2023/12/01 11:45:47;;;;;;;0.00;0.00;;;21.10;44.40;;;;;;5030842;28;20667;-48
2023/12/01 11:48:17;;;;;;;0.10;0.10;;;21.10;44.50;;;;;;5034052;28;20196;-48
2023/12/01 11:50:48;;;;;;;0.05;0.05;;;21.10;44.50;;;;;;5034176;28;20582;-46
2023/12/01 11:53:19;;;;;;;0.00;0.00;;;21.10;44.50;;;;;;5033955;28;20196;-48
2023/12/01 11:55:52;;;;;;;0.08;0.08;;;21.10;44.50;;;;;;5033843;28;20203;-47
2023/12/01 11:58:25;;;;;;;0.00;0.00;;;21.00;44.50;;;;;;5034246;28;20274;-46
2023/12/01 12:00:57;;;;;;;0.00;0.00;;;21.00;44.50;;;;;;5034014;28;20227;-48
2023/12/01 12:03:29;;;;;;;0.00;0.00;;;21.00;44.40;;;;;;5034800;28;20196;-49
2023/12/01 12:05:59;;;;;;;0.00;0.00;;;21.00;44.50;;;;;;5034506;28;20380;-48
2023/12/01 12:08:30;;;;;;;0.00;0.00;;;21.00;44.50;;;;;;5034455;28;20196;-46
2023/12/01 12:11:01;;;;;;;0.10;0.10;;;21.00;44.50;;;;;;5033863;28;20242;-49
2023/12/01 12:13:32;;;;;;;0.13;0.13;;;21.00;44.50;;;;;;5034244;28;20204;-48
2023/12/01 12:16:04;;;;;;;0.03;0.03;;;20.90;44.40;;;;;;5033863;28;20644;-46
2023/12/01 12:18:36;;;;;;;0.00;0.00;;;20.90;44.40;;;;;;5033724;28;20227;-46
2023/12/01 12:21:08;;;;;;;0.00;0.00;;;20.90;44.40;;;;;;5032526;28;20224;-48
2023/12/01 12:23:39;;;;;;;0.00;0.00;;;20.80;44.30;;;;;;5033531;28;20215;-51
2023/12/01 12:26:20;;;;;;;0.10;0.10;;;20.90;44.40;;;;;;5014015;28;20196;-49
2023/12/01 12:28:52;;;;;;;0.00;0.00;;;20.90;44.40;;;;;;5015768;28;20204;-46
2023/12/01 12:31:25;;;;;;;0.00;0.00;;;20.80;44.40;;;;;;5033286;28;20235;-49
2023/12/01 12:33:57;;;;;;;0.10;0.10;;;20.80;44.40;;;;;;5033141;28;20196;-50
2023/12/01 12:36:29;;;;;;;0.00;0.00;;;20.80;44.50;;;;;;5031164;28;20192;-47
2023/12/01 12:39:03;;;;;;;0.00;0.00;;;20.70;44.40;;;;;;5033436;28;20564;-48
2023/12/01 12:41:35;;;;;;;0.10;0.10;;;20.70;44.50;;;;;;5033859;28;20346;-46
2023/12/01 12:44:07;;;;;;;0.10;0.10;;;20.80;44.50;;;;;;5028936;28;20204;-49
2023/12/01 12:46:40;;;;;;;0.10;0.10;;;20.70;44.50;;;;;;5013472;28;20196;-47
2023/12/01 12:49:11;;;;;;;0.00;0.00;;;20.70;44.50;;;;;;5013364;28;20565;-48
2023/12/01 12:51:42;;;;;;;0.00;0.00;;;20.70;44.50;;;;;;5013704;28;20228;-51
2023/12/01 12:54:13;;;;;;;0.10;0.10;;;20.70;44.50;;;;;;5017705;28;20215;-49
2023/12/01 12:56:44;;;;;;;0.00;0.00;;;20.70;44.50;;;;;;5033714;28;20563;-45
2023/12/01 12:59:15;;;;;;;0.10;0.10;;;20.60;44.40;;;;;;5031974;28;20216;-49
2023/12/01 13:01:47;;;;;;;0.05;0.05;;;20.60;44.40;;;;;;5033254;28;20587;-49
2023/12/01 13:04:18;;;;;;;0.10;0.10;;;20.60;44.40;;;;;;5033136;28;20207;-50
2023/12/01 13:06:49;;;;;;;0.00;0.00;;;20.60;44.50;;;;;;5032999;28;20652;-47
2023/12/01 13:09:20;;;;;;;0.10;0.10;;;20.50;44.40;;;;;;5017288;28;20197;-49
2023/12/01 13:11:51;;;;;;;0.00;0.00;;;20.50;44.50;;;;;;5013459;28;20221;-49